sensor_id;sensor_type;location;lat;lon;timestamp;P1;durP1;ratioP1;P2;durP2;ratioP2
9117;SDS011;4594;50.994;7.126;2022-10-24T00:02:05;4.00;;;2.80;;
9117;SDS011;4594;50.994;7.126;2022-10-24T00:04:36;11.20;;;3.40;;
9117;SDS011;4594;50.994;7.126;2022-10-24T00:07:04;6.33;;;2.97;;
9117;SDS011;4594;50.994;7.126;2022-10-24T00:09:32;5.33;;;2.83;;
9117;SDS011;4594;50.994;7.126;2022-10-24T00:11:59;6.17;;;3.23;;
9117;SDS011;4594;50.994;7.126;2022-10-24T00:14:25;3.47;;;2.83;;
9117;SDS011;4594;50.994;7.126;2022-10-24T00:16:52;3.87;;;2.63;;
9117;SDS011;4594;50.994;7.126;2022-10-24T00:19:18;9.97;;;2.93;;
9117;SDS011;4594;50.994;7.126;2022-10-24T00:21:44;7.90;;;3.33;;
9117;SDS011;4594;50.994;7.126;2022-10-24T00:24:10;5.43;;;2.93;;
9117;SDS011;4594;50.994;7.126;2022-10-24T00:26:35;4.80;;;2.60;;
9117;SDS011;4594;50.994;7.126;2022-10-24T00:29:02;7.10;;;2.80;;
9117;SDS011;4594;50.994;7.126;2022-10-24T00:31:29;10.70;;;2.50;;
9117;SDS011;4594;50.994;7.126;2022-10-24T00:33:55;6.47;;;2.70;;
9117;SDS011;4594;50.994;7.126;2022-10-24T00:36:22;5.13;;;2.30;;
9117;SDS011;4594;50.994;7.126;2022-10-24T00:38:48;6.47;;;2.67;;
9117;SDS011;4594;50.994;7.126;2022-10-24T00:41:28;6.80;;;2.87;;
9117;SDS011;4594;50.994;7.126;2022-10-24T00:47:09;4.93;;;2.60;;
9117;SDS011;4594;50.994;7.126;2022-10-24T00:52:40;5.53;;;2.70;;
9117;SDS011;4594;50.994;7.126;2022-10-24T00:55:11;12.80;;;3.17;;
9117;SDS011;4594;50.994;7.126;2022-10-24T00:57:44;8.07;;;2.80;;
9117;SDS011;4594;50.994;7.126;2022-10-24T01:00:18;15.43;;;2.90;;
9117;SDS011;4594;50.994;7.126;2022-10-24T01:02:48;3.80;;;2.53;;
9117;SDS011;4594;50.994;7.126;2022-10-24T01:05:14;3.77;;;2.83;;
9117;SDS011;4594;50.994;7.126;2022-10-24T01:13:47;3.63;;;2.43;;
9117;SDS011;4594;50.994;7.126;2022-10-24T01:16:41;4.83;;;2.67;;
9117;SDS011;4594;50.994;7.126;2022-10-24T01:22:07;4.17;;;2.40;;
9117;SDS011;4594;50.994;7.126;2022-10-24T01:30:42;7.37;;;3.20;;
9117;SDS011;4594;50.994;7.126;2022-10-24T01:35:50;5.27;;;2.57;;
9117;SDS011;4594;50.994;7.126;2022-10-24T01:41:14;10.73;;;2.97;;
9117;SDS011;4594;50.994;7.126;2022-10-24T01:44:01;10.40;;;3.07;;
9117;SDS011;4594;50.994;7.126;2022-10-24T01:46:39;8.73;;;3.37;;
9117;SDS011;4594;50.994;7.126;2022-10-24T01:49:18;6.10;;;2.60;;
9117;SDS011;4594;50.994;7.126;2022-10-24T01:51:50;4.83;;;2.87;;
9117;SDS011;4594;50.994;7.126;2022-10-24T01:54:21;5.17;;;2.50;;
9117;SDS011;4594;50.994;7.126;2022-10-24T01:56:47;11.60;;;2.90;;
9117;SDS011;4594;50.994;7.126;2022-10-24T02:01:54;4.90;;;2.30;;
9117;SDS011;4594;50.994;7.126;2022-10-24T02:04:51;4.07;;;3.10;;
9117;SDS011;4594;50.994;7.126;2022-10-24T02:07:27;5.00;;;2.67;;
9117;SDS011;4594;50.994;7.126;2022-10-24T02:09:57;7.07;;;2.53;;
9117;SDS011;4594;50.994;7.126;2022-10-24T02:12:32;5.83;;;2.90;;
9117;SDS011;4594;50.994;7.126;2022-10-24T02:15:06;5.13;;;2.73;;
9117;SDS011;4594;50.994;7.126;2022-10-24T02:17:38;6.13;;;3.07;;
9117;SDS011;4594;50.994;7.126;2022-10-24T02:20:04;3.70;;;2.83;;
9117;SDS011;4594;50.994;7.126;2022-10-24T02:22:50;6.17;;;2.83;;
9117;SDS011;4594;50.994;7.126;2022-10-24T02:25:59;9.03;;;2.63;;
9117;SDS011;4594;50.994;7.126;2022-10-24T02:28:34;3.87;;;2.13;;
9117;SDS011;4594;50.994;7.126;2022-10-24T02:31:11;4.73;;;2.40;;
9117;SDS011;4594;50.994;7.126;2022-10-24T02:33:43;5.77;;;2.73;;
9117;SDS011;4594;50.994;7.126;2022-10-24T02:36:12;4.93;;;2.70;;
9117;SDS011;4594;50.994;7.126;2022-10-24T02:38:45;6.47;;;3.20;;
9117;SDS011;4594;50.994;7.126;2022-10-24T02:41:15;5.07;;;2.60;;
9117;SDS011;4594;50.994;7.126;2022-10-24T02:43:49;7.20;;;2.93;;
9117;SDS011;4594;50.994;7.126;2022-10-24T02:46:17;6.53;;;2.83;;
9117;SDS011;4594;50.994;7.126;2022-10-24T02:48:46;8.43;;;3.10;;
9117;SDS011;4594;50.994;7.126;2022-10-24T02:51:21;3.63;;;2.60;;
9117;SDS011;4594;50.994;7.126;2022-10-24T02:53:52;7.17;;;2.87;;
9117;SDS011;4594;50.994;7.126;2022-10-24T02:56:19;4.93;;;2.90;;
9117;SDS011;4594;50.994;7.126;2022-10-24T02:58:45;4.23;;;2.47;;
9117;SDS011;4594;50.994;7.126;2022-10-24T03:01:11;4.37;;;2.87;;
9117;SDS011;4594;50.994;7.126;2022-10-24T03:03:37;3.20;;;2.77;;
9117;SDS011;4594;50.994;7.126;2022-10-24T03:06:03;9.53;;;2.57;;
9117;SDS011;4594;50.994;7.126;2022-10-24T03:08:29;6.07;;;2.60;;
9117;SDS011;4594;50.994;7.126;2022-10-24T03:10:54;5.80;;;3.10;;
9117;SDS011;4594;50.994;7.126;2022-10-24T03:13:20;12.20;;;2.60;;
9117;SDS011;4594;50.994;7.126;2022-10-24T03:15:46;5.77;;;2.63;;
9117;SDS011;4594;50.994;7.126;2022-10-24T03:18:11;5.50;;;2.40;;
9117;SDS011;4594;50.994;7.126;2022-10-24T03:20:37;2.93;;;2.33;;
9117;SDS011;4594;50.994;7.126;2022-10-24T03:23:03;3.03;;;2.37;;
9117;SDS011;4594;50.994;7.126;2022-10-24T03:25:29;6.17;;;2.37;;
9117;SDS011;4594;50.994;7.126;2022-10-24T03:27:55;5.17;;;2.77;;
9117;SDS011;4594;50.994;7.126;2022-10-24T03:30:20;5.17;;;2.60;;
9117;SDS011;4594;50.994;7.126;2022-10-24T03:32:46;3.07;;;2.30;;
9117;SDS011;4594;50.994;7.126;2022-10-24T03:35:12;8.07;;;2.50;;
9117;SDS011;4594;50.994;7.126;2022-10-24T03:37:37;4.87;;;2.73;;
9117;SDS011;4594;50.994;7.126;2022-10-24T03:40:03;5.00;;;2.50;;
9117;SDS011;4594;50.994;7.126;2022-10-24T03:42:29;3.73;;;2.50;;
9117;SDS011;4594;50.994;7.126;2022-10-24T03:44:55;4.57;;;2.63;;
9117;SDS011;4594;50.994;7.126;2022-10-24T03:47:21;9.93;;;2.70;;
9117;SDS011;4594;50.994;7.126;2022-10-24T03:49:46;5.03;;;2.60;;
9117;SDS011;4594;50.994;7.126;2022-10-24T03:52:12;4.67;;;2.77;;
9117;SDS011;4594;50.994;7.126;2022-10-24T03:54:38;7.97;;;2.63;;
9117;SDS011;4594;50.994;7.126;2022-10-24T03:57:04;7.23;;;2.57;;
9117;SDS011;4594;50.994;7.126;2022-10-24T03:59:29;9.27;;;2.50;;
9117;SDS011;4594;50.994;7.126;2022-10-24T04:01:55;5.23;;;2.80;;
9117;SDS011;4594;50.994;7.126;2022-10-24T04:04:23;6.07;;;2.30;;
9117;SDS011;4594;50.994;7.126;2022-10-24T04:06:49;5.03;;;2.70;;
9117;SDS011;4594;50.994;7.126;2022-10-24T04:09:15;6.40;;;2.73;;
9117;SDS011;4594;50.994;7.126;2022-10-24T04:11:40;4.80;;;2.83;;
9117;SDS011;4594;50.994;7.126;2022-10-24T04:14:06;6.30;;;2.80;;
9117;SDS011;4594;50.994;7.126;2022-10-24T04:16:33;4.30;;;2.60;;
9117;SDS011;4594;50.994;7.126;2022-10-24T04:18:59;2.80;;;2.20;;
9117;SDS011;4594;50.994;7.126;2022-10-24T04:21:25;8.90;;;3.03;;
9117;SDS011;4594;50.994;7.126;2022-10-24T04:23:51;5.17;;;2.60;;
9117;SDS011;4594;50.994;7.126;2022-10-24T04:26:17;3.87;;;2.43;;
9117;SDS011;4594;50.994;7.126;2022-10-24T04:28:43;3.33;;;2.10;;
9117;SDS011;4594;50.994;7.126;2022-10-24T04:31:11;5.50;;;2.50;;
9117;SDS011;4594;50.994;7.126;2022-10-24T04:33:37;5.60;;;2.20;;
9117;SDS011;4594;50.994;7.126;2022-10-24T04:36:03;3.70;;;2.47;;
9117;SDS011;4594;50.994;7.126;2022-10-24T04:38:29;7.40;;;2.27;;
9117;SDS011;4594;50.994;7.126;2022-10-24T04:40:55;4.77;;;2.37;;
9117;SDS011;4594;50.994;7.126;2022-10-24T04:43:21;4.63;;;2.27;;
9117;SDS011;4594;50.994;7.126;2022-10-24T04:45:48;4.57;;;2.30;;
9117;SDS011;4594;50.994;7.126;2022-10-24T04:48:14;6.97;;;2.43;;
9117;SDS011;4594;50.994;7.126;2022-10-24T04:50:41;3.47;;;1.90;;
9117;SDS011;4594;50.994;7.126;2022-10-24T04:53:09;2.60;;;2.00;;
9117;SDS011;4594;50.994;7.126;2022-10-24T04:55:35;6.70;;;2.07;;
9117;SDS011;4594;50.994;7.126;2022-10-24T04:58:01;6.23;;;2.60;;
9117;SDS011;4594;50.994;7.126;2022-10-24T05:00:27;6.27;;;2.40;;
9117;SDS011;4594;50.994;7.126;2022-10-24T05:02:54;2.47;;;1.83;;
9117;SDS011;4594;50.994;7.126;2022-10-24T05:05:19;7.90;;;1.70;;
9117;SDS011;4594;50.994;7.126;2022-10-24T05:07:45;2.77;;;1.77;;
9117;SDS011;4594;50.994;7.126;2022-10-24T05:10:12;5.70;;;1.90;;
9117;SDS011;4594;50.994;7.126;2022-10-24T05:12:40;2.93;;;2.13;;
9117;SDS011;4594;50.994;7.126;2022-10-24T05:15:06;3.67;;;1.80;;
9117;SDS011;4594;50.994;7.126;2022-10-24T05:17:33;4.07;;;2.03;;
9117;SDS011;4594;50.994;7.126;2022-10-24T05:19:59;4.20;;;1.97;;
9117;SDS011;4594;50.994;7.126;2022-10-24T05:22:26;4.83;;;2.17;;
9117;SDS011;4594;50.994;7.126;2022-10-24T05:24:51;3.43;;;1.90;;
9117;SDS011;4594;50.994;7.126;2022-10-24T05:27:17;3.53;;;1.90;;
9117;SDS011;4594;50.994;7.126;2022-10-24T05:29:48;3.57;;;1.80;;
9117;SDS011;4594;50.994;7.126;2022-10-24T05:32:18;6.07;;;2.60;;
9117;SDS011;4594;50.994;7.126;2022-10-24T05:34:46;2.53;;;1.97;;
9117;SDS011;4594;50.994;7.126;2022-10-24T05:37:11;3.00;;;1.97;;
9117;SDS011;4594;50.994;7.126;2022-10-24T05:39:37;3.00;;;2.00;;
9117;SDS011;4594;50.994;7.126;2022-10-24T05:42:03;8.67;;;2.13;;
9117;SDS011;4594;50.994;7.126;2022-10-24T05:44:29;3.57;;;1.90;;
9117;SDS011;4594;50.994;7.126;2022-10-24T05:46:55;2.77;;;1.80;;
9117;SDS011;4594;50.994;7.126;2022-10-24T05:49:22;1.67;;;1.57;;
9117;SDS011;4594;50.994;7.126;2022-10-24T05:51:48;4.33;;;1.80;;
9117;SDS011;4594;50.994;7.126;2022-10-24T05:54:14;4.07;;;1.80;;
9117;SDS011;4594;50.994;7.126;2022-10-24T05:56:39;4.00;;;2.10;;
9117;SDS011;4594;50.994;7.126;2022-10-24T05:59:05;3.37;;;1.80;;
9117;SDS011;4594;50.994;7.126;2022-10-24T06:01:31;1.97;;;1.77;;
9117;SDS011;4594;50.994;7.126;2022-10-24T06:03:57;2.30;;;1.53;;
9117;SDS011;4594;50.994;7.126;2022-10-24T06:06:23;4.83;;;1.77;;
9117;SDS011;4594;50.994;7.126;2022-10-24T06:08:49;7.20;;;2.07;;
9117;SDS011;4594;50.994;7.126;2022-10-24T06:11:16;5.00;;;2.20;;
9117;SDS011;4594;50.994;7.126;2022-10-24T06:13:42;2.60;;;1.60;;
9117;SDS011;4594;50.994;7.126;2022-10-24T06:16:08;3.33;;;2.03;;
9117;SDS011;4594;50.994;7.126;2022-10-24T06:18:36;9.23;;;1.80;;
9117;SDS011;4594;50.994;7.126;2022-10-24T06:21:04;2.63;;;1.70;;
9117;SDS011;4594;50.994;7.126;2022-10-24T06:23:32;2.40;;;1.90;;
9117;SDS011;4594;50.994;7.126;2022-10-24T06:25:59;4.63;;;1.63;;
9117;SDS011;4594;50.994;7.126;2022-10-24T06:28:26;5.87;;;1.63;;
9117;SDS011;4594;50.994;7.126;2022-10-24T06:30:52;4.73;;;2.13;;
9117;SDS011;4594;50.994;7.126;2022-10-24T06:33:18;3.70;;;2.00;;
9117;SDS011;4594;50.994;7.126;2022-10-24T06:35:45;2.07;;;1.87;;
9117;SDS011;4594;50.994;7.126;2022-10-24T06:38:11;4.07;;;2.10;;
9117;SDS011;4594;50.994;7.126;2022-10-24T06:40:37;7.00;;;2.03;;
9117;SDS011;4594;50.994;7.126;2022-10-24T06:43:06;4.13;;;1.77;;
9117;SDS011;4594;50.994;7.126;2022-10-24T06:45:33;2.83;;;1.93;;
9117;SDS011;4594;50.994;7.126;2022-10-24T06:47:59;3.30;;;1.80;;
9117;SDS011;4594;50.994;7.126;2022-10-24T06:50:24;2.00;;;1.90;;
9117;SDS011;4594;50.994;7.126;2022-10-24T06:52:50;4.70;;;2.40;;
9117;SDS011;4594;50.994;7.126;2022-10-24T06:55:15;2.00;;;1.80;;
9117;SDS011;4594;50.994;7.126;2022-10-24T06:57:41;6.70;;;1.83;;
9117;SDS011;4594;50.994;7.126;2022-10-24T07:00:07;3.53;;;2.20;;
9117;SDS011;4594;50.994;7.126;2022-10-24T07:02:34;5.77;;;2.03;;
9117;SDS011;4594;50.994;7.126;2022-10-24T07:04:59;5.43;;;2.50;;
9117;SDS011;4594;50.994;7.126;2022-10-24T07:07:25;8.17;;;2.20;;
9117;SDS011;4594;50.994;7.126;2022-10-24T07:09:52;2.77;;;1.93;;
9117;SDS011;4594;50.994;7.126;2022-10-24T07:12:22;4.00;;;1.70;;
9117;SDS011;4594;50.994;7.126;2022-10-24T07:14:49;3.73;;;1.90;;
9117;SDS011;4594;50.994;7.126;2022-10-24T07:17:16;3.23;;;1.90;;
9117;SDS011;4594;50.994;7.126;2022-10-24T07:19:42;3.27;;;1.80;;
9117;SDS011;4594;50.994;7.126;2022-10-24T07:22:08;2.80;;;1.90;;
9117;SDS011;4594;50.994;7.126;2022-10-24T07:24:34;2.23;;;2.00;;
9117;SDS011;4594;50.994;7.126;2022-10-24T07:27:00;3.63;;;2.07;;
9117;SDS011;4594;50.994;7.126;2022-10-24T07:29:26;3.10;;;2.00;;
9117;SDS011;4594;50.994;7.126;2022-10-24T07:31:52;3.57;;;1.70;;
9117;SDS011;4594;50.994;7.126;2022-10-24T07:34:19;4.47;;;1.57;;
9117;SDS011;4594;50.994;7.126;2022-10-24T07:36:45;3.63;;;1.93;;
9117;SDS011;4594;50.994;7.126;2022-10-24T07:39:11;1.93;;;1.77;;
9117;SDS011;4594;50.994;7.126;2022-10-24T07:41:38;3.27;;;1.90;;
9117;SDS011;4594;50.994;7.126;2022-10-24T07:44:05;3.23;;;2.03;;
9117;SDS011;4594;50.994;7.126;2022-10-24T07:46:32;4.87;;;2.07;;
9117;SDS011;4594;50.994;7.126;2022-10-24T07:48:58;1.83;;;1.73;;
9117;SDS011;4594;50.994;7.126;2022-10-24T07:51:24;5.10;;;2.23;;
9117;SDS011;4594;50.994;7.126;2022-10-24T07:53:52;5.63;;;1.57;;
9117;SDS011;4594;50.994;7.126;2022-10-24T07:56:18;6.37;;;2.10;;
9117;SDS011;4594;50.994;7.126;2022-10-24T07:58:44;7.27;;;1.97;;
9117;SDS011;4594;50.994;7.126;2022-10-24T08:01:15;5.00;;;1.90;;
9117;SDS011;4594;50.994;7.126;2022-10-24T08:03:44;2.40;;;1.87;;
9117;SDS011;4594;50.994;7.126;2022-10-24T08:06:12;3.63;;;1.80;;
9117;SDS011;4594;50.994;7.126;2022-10-24T08:08:41;2.20;;;1.80;;
9117;SDS011;4594;50.994;7.126;2022-10-24T08:11:09;3.43;;;1.67;;
9117;SDS011;4594;50.994;7.126;2022-10-24T08:13:42;2.67;;;1.60;;
9117;SDS011;4594;50.994;7.126;2022-10-24T08:16:10;2.10;;;1.60;;
9117;SDS011;4594;50.994;7.126;2022-10-24T08:18:38;2.80;;;1.60;;
9117;SDS011;4594;50.994;7.126;2022-10-24T08:21:05;5.63;;;1.50;;
9117;SDS011;4594;50.994;7.126;2022-10-24T08:23:34;3.53;;;1.50;;
9117;SDS011;4594;50.994;7.126;2022-10-24T08:26:03;1.93;;;1.63;;
9117;SDS011;4594;50.994;7.126;2022-10-24T08:28:30;4.97;;;1.40;;
9117;SDS011;4594;50.994;7.126;2022-10-24T08:31:07;5.67;;;1.90;;
9117;SDS011;4594;50.994;7.126;2022-10-24T08:33:36;6.53;;;1.70;;
9117;SDS011;4594;50.994;7.126;2022-10-24T08:36:11;4.10;;;1.30;;
9117;SDS011;4594;50.994;7.126;2022-10-24T08:38:59;2.87;;;1.50;;
9117;SDS011;4594;50.994;7.126;2022-10-24T08:41:28;4.97;;;1.53;;
9117;SDS011;4594;50.994;7.126;2022-10-24T08:44:04;1.43;;;1.33;;
9117;SDS011;4594;50.994;7.126;2022-10-24T08:46:48;2.13;;;1.60;;
9117;SDS011;4594;50.994;7.126;2022-10-24T08:52:31;1.97;;;1.53;;
9117;SDS011;4594;50.994;7.126;2022-10-24T08:55:58;5.57;;;1.30;;
9117;SDS011;4594;50.994;7.126;2022-10-24T08:58:28;1.70;;;1.27;;
9117;SDS011;4594;50.994;7.126;2022-10-24T09:01:01;2.20;;;1.50;;
9117;SDS011;4594;50.994;7.126;2022-10-24T09:06:12;1.80;;;1.57;;
9117;SDS011;4594;50.994;7.126;2022-10-24T09:08:47;2.93;;;1.30;;
9117;SDS011;4594;50.994;7.126;2022-10-24T09:11:39;1.97;;;1.40;;
9117;SDS011;4594;50.994;7.126;2022-10-24T09:14:29;2.90;;;1.57;;
9117;SDS011;4594;50.994;7.126;2022-10-24T09:19:52;7.23;;;2.13;;
9117;SDS011;4594;50.994;7.126;2022-10-24T09:22:21;5.37;;;2.07;;
9117;SDS011;4594;50.994;7.126;2022-10-24T09:24:57;3.37;;;1.40;;
9117;SDS011;4594;50.994;7.126;2022-10-24T09:27:40;2.83;;;1.77;;
9117;SDS011;4594;50.994;7.126;2022-10-24T09:30:10;5.13;;;1.30;;
9117;SDS011;4594;50.994;7.126;2022-10-24T09:32:48;5.50;;;1.73;;
9117;SDS011;4594;50.994;7.126;2022-10-24T09:35:18;3.87;;;1.53;;
9117;SDS011;4594;50.994;7.126;2022-10-24T09:37:53;4.47;;;1.43;;
9117;SDS011;4594;50.994;7.126;2022-10-24T09:40:26;5.00;;;2.17;;
9117;SDS011;4594;50.994;7.126;2022-10-24T09:51:24;2.83;;;2.20;;
9117;SDS011;4594;50.994;7.126;2022-10-24T09:56:42;3.80;;;1.80;;
9117;SDS011;4594;50.994;7.126;2022-10-24T09:59:41;7.20;;;3.00;;
9117;SDS011;4594;50.994;7.126;2022-10-24T10:07:29;6.67;;;1.80;;
9117;SDS011;4594;50.994;7.126;2022-10-24T10:23:41;6.13;;;2.87;;
9117;SDS011;4594;50.994;7.126;2022-10-24T10:28:58;10.23;;;4.03;;
9117;SDS011;4594;50.994;7.126;2022-10-24T10:37:15;8.23;;;2.20;;
9117;SDS011;4594;50.994;7.126;2022-10-24T10:46:00;4.43;;;1.87;;
9117;SDS011;4594;50.994;7.126;2022-10-24T10:54:31;6.80;;;3.37;;
9117;SDS011;4594;50.994;7.126;2022-10-24T10:57:46;10.37;;;3.47;;
9117;SDS011;4594;50.994;7.126;2022-10-24T11:00:16;10.10;;;2.40;;
9117;SDS011;4594;50.994;7.126;2022-10-24T11:03:06;4.63;;;1.93;;
9117;SDS011;4594;50.994;7.126;2022-10-24T11:06:05;4.20;;;1.60;;
9117;SDS011;4594;50.994;7.126;2022-10-24T11:12:28;6.20;;;1.73;;
9117;SDS011;4594;50.994;7.126;2022-10-24T11:14:36;2.70;;;1.40;;
9117;SDS011;4594;50.994;7.126;2022-10-24T11:17:38;3.90;;;2.17;;
9117;SDS011;4594;50.994;7.126;2022-10-24T11:20:20;8.10;;;2.97;;
9117;SDS011;4594;50.994;7.126;2022-10-24T11:25:35;5.80;;;2.37;;
9117;SDS011;4594;50.994;7.126;2022-10-24T11:28:40;6.23;;;2.13;;
9117;SDS011;4594;50.994;7.126;2022-10-24T11:31:34;3.90;;;1.67;;
9117;SDS011;4594;50.994;7.126;2022-10-24T11:34:18;4.50;;;1.70;;
9117;SDS011;4594;50.994;7.126;2022-10-24T11:39:43;2.90;;;1.80;;
9117;SDS011;4594;50.994;7.126;2022-10-24T11:42:33;6.50;;;2.20;;
9117;SDS011;4594;50.994;7.126;2022-10-24T11:45:20;2.87;;;1.70;;
9117;SDS011;4594;50.994;7.126;2022-10-24T11:50:26;6.83;;;1.87;;
9117;SDS011;4594;50.994;7.126;2022-10-24T11:53:22;2.43;;;1.60;;
9117;SDS011;4594;50.994;7.126;2022-10-24T11:55:53;8.00;;;1.83;;
9117;SDS011;4594;50.994;7.126;2022-10-24T11:58:37;4.93;;;1.87;;
9117;SDS011;4594;50.994;7.126;2022-10-24T12:07:19;3.27;;;2.30;;
9117;SDS011;4594;50.994;7.126;2022-10-24T12:13:08;3.23;;;1.67;;
9117;SDS011;4594;50.994;7.126;2022-10-24T12:15:57;2.87;;;1.70;;
9117;SDS011;4594;50.994;7.126;2022-10-24T12:18:47;8.83;;;2.20;;
9117;SDS011;4594;50.994;7.126;2022-10-24T12:21:23;6.53;;;1.90;;
9117;SDS011;4594;50.994;7.126;2022-10-24T12:23:52;2.00;;;1.80;;
9117;SDS011;4594;50.994;7.126;2022-10-24T12:31:25;2.40;;;1.50;;
9117;SDS011;4594;50.994;7.126;2022-10-24T12:39:27;4.03;;;1.80;;
9117;SDS011;4594;50.994;7.126;2022-10-24T12:42:00;3.53;;;1.87;;
9117;SDS011;4594;50.994;7.126;2022-10-24T12:46:58;5.27;;;2.63;;
9117;SDS011;4594;50.994;7.126;2022-10-24T12:49:40;5.77;;;2.40;;
9117;SDS011;4594;50.994;7.126;2022-10-24T12:54:56;10.00;;;3.30;;
9117;SDS011;4594;50.994;7.126;2022-10-24T12:57:27;5.33;;;3.03;;
9117;SDS011;4594;50.994;7.126;2022-10-24T13:00:20;8.77;;;3.17;;
9117;SDS011;4594;50.994;7.126;2022-10-24T13:03:02;7.50;;;2.87;;
9117;SDS011;4594;50.994;7.126;2022-10-24T13:05:59;5.57;;;2.23;;
9117;SDS011;4594;50.994;7.126;2022-10-24T13:11:56;2.57;;;1.63;;
9117;SDS011;4594;50.994;7.126;2022-10-24T13:18:25;8.20;;;2.60;;
9117;SDS011;4594;50.994;7.126;2022-10-24T13:21:23;4.83;;;1.57;;
9117;SDS011;4594;50.994;7.126;2022-10-24T13:29:57;5.47;;;3.13;;
9117;SDS011;4594;50.994;7.126;2022-10-24T13:34:37;5.83;;;2.20;;
9117;SDS011;4594;50.994;7.126;2022-10-24T13:37:20;2.47;;;1.77;;
9117;SDS011;4594;50.994;7.126;2022-10-24T13:39:56;5.57;;;2.10;;
9117;SDS011;4594;50.994;7.126;2022-10-24T13:42:33;8.60;;;3.60;;
9117;SDS011;4594;50.994;7.126;2022-10-24T13:48:30;3.90;;;2.70;;
9117;SDS011;4594;50.994;7.126;2022-10-24T13:51:04;2.80;;;2.20;;
9117;SDS011;4594;50.994;7.126;2022-10-24T13:53:42;4.57;;;2.20;;
9117;SDS011;4594;50.994;7.126;2022-10-24T13:56:14;2.10;;;1.70;;
9117;SDS011;4594;50.994;7.126;2022-10-24T13:58:42;2.83;;;1.63;;
9117;SDS011;4594;50.994;7.126;2022-10-24T14:01:17;5.40;;;2.10;;
9117;SDS011;4594;50.994;7.126;2022-10-24T14:03:51;2.93;;;1.70;;
9117;SDS011;4594;50.994;7.126;2022-10-24T14:06:26;9.63;;;1.80;;
9117;SDS011;4594;50.994;7.126;2022-10-24T14:08:57;6.37;;;2.17;;
9117;SDS011;4594;50.994;7.126;2022-10-24T14:11:26;3.47;;;1.57;;
9117;SDS011;4594;50.994;7.126;2022-10-24T14:13:56;1.97;;;1.57;;
9117;SDS011;4594;50.994;7.126;2022-10-24T14:16:32;2.50;;;1.80;;
9117;SDS011;4594;50.994;7.126;2022-10-24T14:21:43;8.47;;;3.40;;
9117;SDS011;4594;50.994;7.126;2022-10-24T14:24:13;9.17;;;6.00;;
9117;SDS011;4594;50.994;7.126;2022-10-24T14:26:42;15.23;;;6.30;;
9117;SDS011;4594;50.994;7.126;2022-10-24T14:31:57;5.67;;;3.93;;
9117;SDS011;4594;50.994;7.126;2022-10-24T14:34:26;6.13;;;2.70;;
9117;SDS011;4594;50.994;7.126;2022-10-24T14:36:55;3.87;;;2.50;;
9117;SDS011;4594;50.994;7.126;2022-10-24T14:39:26;5.60;;;1.93;;
9117;SDS011;4594;50.994;7.126;2022-10-24T14:41:53;3.47;;;2.33;;
9117;SDS011;4594;50.994;7.126;2022-10-24T14:44:19;5.10;;;2.00;;
9117;SDS011;4594;50.994;7.126;2022-10-24T14:47:34;3.47;;;1.80;;
9117;SDS011;4594;50.994;7.126;2022-10-24T14:49:59;4.73;;;1.90;;
9117;SDS011;4594;50.994;7.126;2022-10-24T14:52:34;6.37;;;3.57;;
9117;SDS011;4594;50.994;7.126;2022-10-24T14:55:05;11.77;;;6.30;;
9117;SDS011;4594;50.994;7.126;2022-10-24T14:57:48;9.53;;;5.30;;
9117;SDS011;4594;50.994;7.126;2022-10-24T15:00:26;7.90;;;4.90;;
9117;SDS011;4594;50.994;7.126;2022-10-24T15:03:01;6.60;;;4.30;;
9117;SDS011;4594;50.994;7.126;2022-10-24T15:05:29;7.17;;;3.37;;
9117;SDS011;4594;50.994;7.126;2022-10-24T15:13:15;10.37;;;3.30;;
9117;SDS011;4594;50.994;7.126;2022-10-24T15:15:58;6.73;;;4.17;;
9117;SDS011;4594;50.994;7.126;2022-10-24T15:18:29;10.53;;;5.57;;
9117;SDS011;4594;50.994;7.126;2022-10-24T15:21:05;6.10;;;4.43;;
9117;SDS011;4594;50.994;7.126;2022-10-24T15:24:15;6.83;;;4.40;;
9117;SDS011;4594;50.994;7.126;2022-10-24T15:31:29;4.77;;;2.63;;
9117;SDS011;4594;50.994;7.126;2022-10-24T15:34:00;5.20;;;3.30;;
9117;SDS011;4594;50.994;7.126;2022-10-24T15:36:27;3.20;;;2.17;;
9117;SDS011;4594;50.994;7.126;2022-10-24T15:38:58;3.23;;;2.50;;
9117;SDS011;4594;50.994;7.126;2022-10-24T15:41:36;7.10;;;2.73;;
9117;SDS011;4594;50.994;7.126;2022-10-24T15:44:20;7.93;;;2.80;;
9117;SDS011;4594;50.994;7.126;2022-10-24T15:46:49;4.47;;;2.50;;
9117;SDS011;4594;50.994;7.126;2022-10-24T15:49:15;7.00;;;2.50;;
9117;SDS011;4594;50.994;7.126;2022-10-24T15:51:42;4.30;;;2.90;;
9117;SDS011;4594;50.994;7.126;2022-10-24T15:54:11;15.37;;;7.07;;
9117;SDS011;4594;50.994;7.126;2022-10-24T15:56:39;23.47;;;8.07;;
9117;SDS011;4594;50.994;7.126;2022-10-24T15:59:04;13.07;;;7.63;;
9117;SDS011;4594;50.994;7.126;2022-10-24T16:01:38;15.13;;;8.27;;
9117;SDS011;4594;50.994;7.126;2022-10-24T16:04:14;8.23;;;5.37;;
9117;SDS011;4594;50.994;7.126;2022-10-24T16:06:41;12.83;;;4.40;;
9117;SDS011;4594;50.994;7.126;2022-10-24T16:09:13;12.17;;;5.23;;
9117;SDS011;4594;50.994;7.126;2022-10-24T16:11:44;9.77;;;4.90;;
9117;SDS011;4594;50.994;7.126;2022-10-24T16:14:13;9.60;;;5.23;;
9117;SDS011;4594;50.994;7.126;2022-10-24T16:16:44;12.57;;;5.53;;
9117;SDS011;4594;50.994;7.126;2022-10-24T16:19:10;8.30;;;4.50;;
9117;SDS011;4594;50.994;7.126;2022-10-24T16:21:37;9.77;;;5.60;;
9117;SDS011;4594;50.994;7.126;2022-10-24T16:24:05;12.43;;;5.30;;
9117;SDS011;4594;50.994;7.126;2022-10-24T16:26:31;5.33;;;3.70;;
9117;SDS011;4594;50.994;7.126;2022-10-24T16:28:57;6.60;;;3.10;;
9117;SDS011;4594;50.994;7.126;2022-10-24T16:31:23;5.53;;;2.93;;
9117;SDS011;4594;50.994;7.126;2022-10-24T16:33:49;6.47;;;3.90;;
9117;SDS011;4594;50.994;7.126;2022-10-24T16:36:16;12.83;;;5.43;;
9117;SDS011;4594;50.994;7.126;2022-10-24T16:38:42;15.70;;;8.60;;
9117;SDS011;4594;50.994;7.126;2022-10-24T16:41:17;18.67;;;8.63;;
9117;SDS011;4594;50.994;7.126;2022-10-24T16:43:47;9.77;;;5.57;;
9117;SDS011;4594;50.994;7.126;2022-10-24T16:46:15;11.50;;;4.33;;
9117;SDS011;4594;50.994;7.126;2022-10-24T16:48:44;6.43;;;3.20;;
9117;SDS011;4594;50.994;7.126;2022-10-24T16:51:11;11.57;;;5.00;;
9117;SDS011;4594;50.994;7.126;2022-10-24T16:53:40;18.20;;;7.70;;
9117;SDS011;4594;50.994;7.126;2022-10-24T16:56:10;15.07;;;7.90;;
9117;SDS011;4594;50.994;7.126;2022-10-24T16:58:38;13.20;;;7.47;;
9117;SDS011;4594;50.994;7.126;2022-10-24T17:01:05;12.83;;;7.10;;
9117;SDS011;4594;50.994;7.126;2022-10-24T17:03:34;15.23;;;6.77;;
9117;SDS011;4594;50.994;7.126;2022-10-24T17:06:01;9.60;;;5.87;;
9117;SDS011;4594;50.994;7.126;2022-10-24T17:08:28;8.77;;;5.03;;
9117;SDS011;4594;50.994;7.126;2022-10-24T17:10:54;7.13;;;4.40;;
9117;SDS011;4594;50.994;7.126;2022-10-24T17:13:21;7.80;;;3.43;;
9117;SDS011;4594;50.994;7.126;2022-10-24T17:15:48;7.87;;;2.53;;
9117;SDS011;4594;50.994;7.126;2022-10-24T17:18:14;6.17;;;2.70;;
9117;SDS011;4594;50.994;7.126;2022-10-24T17:20:41;6.60;;;2.17;;
9117;SDS011;4594;50.994;7.126;2022-10-24T17:23:09;5.17;;;2.40;;
9117;SDS011;4594;50.994;7.126;2022-10-24T17:25:39;5.97;;;2.40;;
9117;SDS011;4594;50.994;7.126;2022-10-24T17:28:06;8.00;;;2.70;;
9117;SDS011;4594;50.994;7.126;2022-10-24T17:30:32;5.40;;;2.33;;
9117;SDS011;4594;50.994;7.126;2022-10-24T17:32:58;8.20;;;2.70;;
9117;SDS011;4594;50.994;7.126;2022-10-24T17:35:25;4.03;;;2.53;;
9117;SDS011;4594;50.994;7.126;2022-10-24T17:38:01;7.20;;;3.43;;
9117;SDS011;4594;50.994;7.126;2022-10-24T17:41:13;8.43;;;3.43;;
9117;SDS011;4594;50.994;7.126;2022-10-24T17:43:50;7.33;;;3.70;;
9117;SDS011;4594;50.994;7.126;2022-10-24T17:46:17;9.00;;;3.20;;
9117;SDS011;4594;50.994;7.126;2022-10-24T17:48:43;8.10;;;3.43;;
9117;SDS011;4594;50.994;7.126;2022-10-24T17:51:09;12.33;;;4.30;;
9117;SDS011;4594;50.994;7.126;2022-10-24T17:53:39;6.43;;;3.77;;
9117;SDS011;4594;50.994;7.126;2022-10-24T17:56:05;9.77;;;4.97;;
9117;SDS011;4594;50.994;7.126;2022-10-24T17:58:31;11.87;;;5.60;;
9117;SDS011;4594;50.994;7.126;2022-10-24T18:00:58;9.27;;;3.90;;
9117;SDS011;4594;50.994;7.126;2022-10-24T18:03:24;10.43;;;4.07;;
9117;SDS011;4594;50.994;7.126;2022-10-24T18:05:51;14.47;;;4.73;;
9117;SDS011;4594;50.994;7.126;2022-10-24T18:08:22;7.30;;;3.77;;
9117;SDS011;4594;50.994;7.126;2022-10-24T18:10:47;10.07;;;3.77;;
9117;SDS011;4594;50.994;7.126;2022-10-24T18:13:14;12.10;;;5.60;;
9117;SDS011;4594;50.994;7.126;2022-10-24T18:15:39;9.97;;;4.80;;
9117;SDS011;4594;50.994;7.126;2022-10-24T18:18:05;10.77;;;4.57;;
9117;SDS011;4594;50.994;7.126;2022-10-24T18:20:31;6.73;;;3.77;;